createdAt,value
2023-03-20T00:00:35.086Z,8.60
2023-03-20T00:03:04.272Z,8.60
2023-03-20T00:05:34.464Z,8.60
2023-03-20T00:08:03.022Z,8.60
2023-03-20T00:10:37.230Z,8.60
2023-03-20T00:13:06.897Z,8.50
2023-03-20T00:15:38.445Z,8.50
2023-03-20T00:18:16.525Z,8.50
2023-03-20T00:20:46.613Z,8.50
2023-03-20T00:23:15.528Z,8.60
2023-03-20T00:25:46.965Z,8.60
2023-03-20T00:28:40.887Z,8.60
2023-03-20T00:31:20.478Z,8.60
2023-03-20T00:33:48.950Z,8.60
2023-03-20T00:36:18.660Z,8.50
2023-03-20T00:38:47.059Z,8.50
2023-03-20T00:41:24.700Z,8.50
2023-03-20T00:43:56.611Z,8.50
2023-03-20T00:46:25.554Z,8.50
2023-03-20T00:48:54.080Z,8.50
2023-03-20T00:51:24.016Z,8.50
2023-03-20T00:53:52.332Z,8.50
2023-03-20T00:56:35.815Z,8.50
2023-03-20T00:59:05.406Z,8.60
2023-03-20T01:01:34.078Z,8.70
2023-03-20T01:04:02.440Z,8.70
2023-03-20T01:06:33.121Z,8.60
2023-03-20T01:09:08.592Z,8.70
2023-03-20T01:11:46.163Z,8.70
2023-03-20T01:14:17.034Z,8.70
2023-03-20T01:16:45.863Z,8.70
2023-03-20T01:19:15.580Z,8.70
2023-03-20T01:21:45.429Z,8.70
2023-03-20T01:24:13.937Z,8.80
2023-03-20T01:26:44.025Z,8.70
2023-03-20T01:29:19.967Z,8.70
2023-03-20T01:31:48.572Z,8.70
2023-03-20T01:34:17.517Z,8.80
2023-03-20T01:36:51.339Z,8.80
2023-03-20T01:39:21.796Z,8.80
2023-03-20T01:41:52.327Z,8.80
2023-03-20T01:44:23.259Z,8.80
2023-03-20T01:46:54.058Z,8.80
2023-03-20T01:49:59.218Z,8.80
2023-03-20T01:52:29.111Z,8.80
2023-03-20T01:54:57.501Z,8.80
2023-03-20T01:57:27.217Z,8.80
2023-03-20T02:00:01.716Z,8.80
2023-03-20T02:02:33.086Z,8.80
2023-03-20T02:05:05.563Z,8.80
2023-03-20T02:07:36.562Z,8.70
2023-03-20T02:10:06.919Z,8.80
2023-03-20T02:12:35.868Z,8.80
2023-03-20T02:15:04.852Z,8.70
2023-03-20T02:17:34.081Z,8.80
2023-03-20T02:20:13.786Z,8.70
2023-03-20T02:23:11.484Z,8.80
2023-03-20T02:26:04.042Z,8.70
2023-03-20T02:28:59.624Z,8.80
2023-03-20T02:31:56.641Z,8.80
2023-03-20T02:34:54.402Z,8.80
2023-03-20T02:38:08.253Z,8.70
2023-03-20T02:40:46.165Z,8.80
2023-03-20T02:43:21.388Z,8.80
2023-03-20T02:45:57.115Z,8.80
2023-03-20T02:48:34.403Z,8.80
2023-03-20T02:51:08.614Z,8.80
2023-03-20T02:53:48.288Z,8.80
2023-03-20T02:56:23.399Z,8.80
2023-03-20T02:58:59.555Z,8.90
2023-03-20T03:01:33.367Z,8.90
2023-03-20T03:04:08.951Z,8.90
2023-03-20T03:06:41.163Z,8.90
2023-03-20T03:09:17.663Z,8.90
2023-03-20T03:11:51.803Z,8.90
2023-03-20T03:14:30.376Z,8.90
2023-03-20T03:17:02.065Z,8.90
2023-03-20T03:19:31.595Z,8.90
2023-03-20T03:22:00.054Z,8.90
2023-03-20T03:24:40.680Z,8.90
2023-03-20T03:27:18.791Z,8.90
2023-03-20T03:29:52.617Z,8.90
2023-03-20T03:32:27.892Z,8.90
2023-03-20T03:34:59.801Z,8.90
2023-03-20T03:37:44.010Z,8.90
2023-03-20T03:40:20.986Z,8.80
2023-03-20T03:42:58.062Z,8.80
2023-03-20T03:45:32.918Z,8.80
2023-03-20T03:48:06.903Z,8.90
2023-03-20T03:50:41.711Z,8.90
2023-03-20T03:53:13.389Z,8.90
2023-03-20T03:55:46.009Z,8.90
2023-03-20T03:58:28.438Z,8.90
2023-03-20T04:00:59.809Z,8.90
2023-03-20T04:03:34.079Z,8.90
2023-03-20T04:06:04.573Z,8.90
2023-03-20T04:08:33.016Z,8.90
2023-03-20T04:11:01.377Z,8.90
2023-03-20T04:13:31.396Z,8.90
2023-03-20T04:15:59.834Z,8.90
2023-03-20T04:18:30.582Z,9.00
2023-03-20T04:20:59.340Z,8.90
2023-03-20T04:23:27.734Z,8.80
2023-03-20T04:25:56.182Z,8.80
2023-03-20T04:28:24.960Z,8.80
2023-03-20T04:30:58.803Z,8.80
2023-03-20T04:33:28.141Z,8.80
2023-03-20T04:35:56.988Z,8.80
2023-03-20T04:38:25.914Z,8.80
2023-03-20T04:40:56.900Z,8.80
2023-03-20T04:43:25.497Z,8.80
2023-03-20T04:45:54.238Z,8.90
2023-03-20T04:48:24.119Z,8.90
2023-03-20T04:50:52.462Z,8.90
2023-03-20T04:53:21.217Z,8.80
2023-03-20T04:55:51.231Z,8.80
2023-03-20T04:58:19.671Z,8.90
2023-03-20T05:01:07.237Z,8.90
2023-03-20T05:03:36.950Z,8.90
2023-03-20T05:06:05.708Z,8.80
2023-03-20T05:08:34.020Z,8.70
2023-03-20T05:11:02.498Z,8.80
2023-03-20T05:13:30.732Z,8.80
2023-03-20T05:18:47.692Z,8.80
2023-03-20T05:21:16.412Z,8.80
2023-03-20T05:23:44.684Z,8.80
2023-03-20T05:26:13.152Z,8.80
2023-03-20T05:28:41.914Z,8.80
2023-03-20T05:31:10.610Z,8.80
2023-03-20T05:33:40.132Z,8.80
2023-03-20T05:36:11.085Z,8.90
2023-03-20T05:38:39.438Z,8.90
2023-03-20T05:41:10.445Z,8.90
2023-03-20T05:43:38.977Z,8.90
2023-03-20T05:46:08.306Z,8.80
2023-03-20T05:48:37.166Z,8.90
2023-03-20T05:51:06.552Z,8.90
2023-03-20T05:53:37.358Z,8.80
2023-03-20T05:56:06.660Z,8.90
2023-03-20T05:58:35.276Z,9.00
2023-03-20T06:01:04.157Z,8.90
2023-03-20T06:03:33.413Z,8.90
2023-03-20T06:06:03.929Z,8.90
2023-03-20T06:08:41.189Z,8.90
2023-03-20T06:11:10.789Z,8.90
2023-03-20T06:13:43.156Z,9.00
2023-03-20T06:16:16.210Z,9.00
2023-03-20T06:18:57.047Z,8.90
2023-03-20T06:21:30.000Z,8.90
2023-03-20T06:24:21.704Z,9.00
2023-03-20T06:26:50.428Z,9.00
2023-03-20T06:29:32.738Z,9.00
2023-03-20T06:32:21.523Z,9.00
2023-03-20T06:34:58.666Z,9.10
2023-03-20T06:37:41.965Z,9.10
2023-03-20T06:40:19.233Z,9.00
2023-03-20T06:42:47.522Z,9.10
2023-03-20T06:45:23.238Z,9.10
2023-03-20T06:48:02.434Z,9.20
2023-03-20T06:50:37.516Z,9.30
2023-03-20T06:53:09.553Z,9.00
2023-03-20T06:55:40.565Z,9.20
2023-03-20T06:58:14.366Z,9.20
2023-03-20T07:00:44.472Z,9.10
2023-03-20T07:03:14.282Z,9.20
2023-03-20T07:05:45.438Z,9.20
2023-03-20T07:08:13.893Z,9.30
2023-03-20T07:10:52.225Z,9.40
2023-03-20T07:13:20.850Z,9.30
2023-03-20T07:16:03.455Z,9.30
2023-03-20T07:18:32.469Z,9.30
2023-03-20T07:21:03.288Z,9.20
2023-03-20T07:23:32.426Z,9.30
2023-03-20T07:26:02.443Z,9.10
2023-03-20T07:28:30.803Z,9.20
2023-03-20T07:31:01.462Z,9.10
2023-03-20T07:33:30.174Z,9.20
2023-03-20T07:35:59.028Z,9.20
2023-03-20T07:38:30.577Z,9.10
2023-03-20T07:41:01.011Z,9.30
2023-03-20T07:43:30.918Z,9.30
2023-03-20T07:45:59.191Z,9.30
2023-03-20T07:48:27.559Z,9.40
2023-03-20T07:51:09.683Z,9.40
2023-03-20T07:53:40.459Z,9.50
2023-03-20T07:56:09.951Z,9.60
2023-03-20T07:58:39.767Z,9.60
2023-03-20T08:01:08.155Z,9.40
2023-03-20T08:03:36.620Z,9.60
2023-03-20T08:06:07.938Z,9.40
2023-03-20T08:08:38.588Z,9.50
2023-03-20T08:11:08.218Z,9.50
2023-03-20T08:13:36.863Z,9.50
2023-03-20T08:16:07.772Z,9.60
2023-03-20T08:18:36.584Z,9.70
2023-03-20T08:21:06.392Z,9.70
2023-03-20T08:23:35.485Z,9.50
2023-03-20T08:26:05.287Z,9.60
2023-03-20T08:28:47.421Z,9.40
2023-03-20T08:31:23.970Z,9.50
2023-03-20T08:34:01.564Z,9.50
2023-03-20T08:36:31.126Z,9.50
2023-03-20T08:39:02.384Z,9.40
2023-03-20T08:41:31.100Z,9.60
2023-03-20T08:44:08.681Z,9.70
2023-03-20T08:46:39.959Z,9.60
2023-03-20T08:49:08.788Z,9.70
2023-03-20T08:51:40.612Z,9.50
2023-03-20T08:54:20.446Z,9.50
2023-03-20T08:56:56.349Z,9.80
2023-03-20T08:59:24.805Z,9.90
2023-03-20T09:01:54.519Z,9.50
2023-03-20T09:04:22.728Z,9.60
2023-03-20T09:06:51.928Z,9.50
2023-03-20T09:09:26.493Z,9.50
2023-03-20T09:11:56.098Z,9.60
2023-03-20T09:14:26.916Z,9.50
2023-03-20T09:16:56.882Z,9.60
2023-03-20T09:19:26.515Z,9.50
2023-03-20T09:21:57.051Z,9.50
2023-03-20T09:24:26.463Z,9.70
2023-03-20T09:26:56.132Z,9.90
2023-03-20T09:29:26.111Z,9.90
2023-03-20T09:32:18.403Z,10.00
2023-03-20T09:34:50.510Z,10.00
2023-03-20T09:37:18.765Z,10.00
2023-03-20T09:39:47.009Z,10.00
2023-03-20T09:42:28.179Z,9.90
2023-03-20T09:45:18.833Z,10.00
2023-03-20T09:47:57.934Z,9.90
2023-03-20T09:50:49.707Z,9.90
2023-03-20T09:53:25.259Z,9.70
2023-03-20T09:56:54.376Z,9.90
2023-03-20T09:59:25.064Z,10.00
2023-03-20T10:02:04.484Z,10.00
2023-03-20T10:04:34.922Z,10.00
2023-03-20T10:07:06.066Z,10.20
2023-03-20T10:09:35.029Z,10.00
2023-03-20T10:12:25.856Z,9.90
2023-03-20T10:14:59.753Z,9.90
2023-03-20T10:17:52.136Z,9.90
2023-03-20T10:20:31.329Z,10.10
2023-03-20T10:23:03.460Z,10.10
2023-03-20T10:25:33.999Z,10.00
2023-03-20T10:32:00.845Z,10.30
2023-03-20T10:34:43.632Z,10.20
2023-03-20T10:37:28.638Z,10.30
2023-03-20T10:40:28.349Z,10.30
2023-03-20T10:43:01.594Z,10.30
2023-03-20T10:45:39.371Z,10.20
2023-03-20T10:48:20.060Z,10.30
2023-03-20T10:51:11.975Z,10.50
2023-03-20T10:53:49.123Z,10.30
2023-03-20T10:56:37.369Z,10.20
2023-03-20T10:59:25.986Z,10.20
2023-03-20T11:01:54.491Z,10.30
2023-03-20T11:04:22.733Z,10.40
2023-03-20T11:06:59.626Z,10.60
2023-03-20T11:09:32.614Z,10.80
2023-03-20T11:12:03.312Z,10.70
2023-03-20T11:14:35.752Z,10.80
2023-03-20T11:17:10.081Z,10.90
2023-03-20T11:19:40.914Z,11.20
2023-03-20T11:22:28.415Z,11.50
2023-03-20T11:25:01.664Z,11.30
2023-03-20T11:27:33.548Z,11.20
2023-03-20T11:30:16.243Z,11.60
2023-03-20T11:32:50.080Z,11.70
2023-03-20T11:35:23.938Z,11.70
2023-03-20T11:37:54.735Z,11.60
2023-03-20T11:40:34.375Z,11.40
2023-03-20T11:43:10.207Z,11.20
2023-03-20T11:45:45.913Z,11.50
2023-03-20T11:48:31.908Z,11.40
2023-03-20T11:51:04.377Z,11.40
2023-03-20T11:53:35.678Z,11.30
2023-03-20T11:56:13.694Z,11.20
2023-03-20T11:59:23.218Z,11.40
2023-03-20T12:01:59.925Z,11.20
2023-03-20T12:04:33.408Z,10.90
2023-03-20T12:07:29.885Z,10.70
2023-03-20T12:10:30.058Z,10.70
2023-03-20T12:13:04.027Z,11.00
2023-03-20T12:15:41.844Z,11.10
2023-03-20T12:20:54.221Z,11.10
2023-03-20T12:23:30.024Z,11.10
2023-03-20T12:26:05.033Z,11.30
2023-03-20T12:28:42.598Z,11.40
2023-03-20T12:31:29.059Z,11.20
2023-03-20T12:34:04.351Z,11.30
2023-03-20T12:36:41.075Z,11.20
2023-03-20T12:42:22.654Z,11.40
2023-03-20T12:44:58.896Z,11.70
2023-03-20T12:47:53.187Z,11.50
2023-03-20T12:50:49.000Z,11.20
2023-03-20T12:53:45.667Z,11.30
2023-03-20T12:56:55.403Z,11.60
2023-03-20T12:59:40.391Z,11.40
2023-03-20T13:05:36.799Z,11.40
2023-03-20T13:12:49.715Z,12.00
2023-03-20T13:15:38.381Z,12.10
2023-03-20T13:18:15.828Z,12.40
2023-03-20T13:20:59.721Z,12.20
2023-03-20T13:24:22.249Z,12.30
2023-03-20T13:26:58.021Z,12.40
2023-03-20T13:29:35.624Z,11.90
2023-03-20T13:32:15.054Z,11.80
2023-03-20T13:35:10.276Z,11.90
2023-03-20T13:37:42.905Z,12.10
2023-03-20T13:47:02.865Z,12.50
2023-03-20T13:49:40.222Z,12.60
2023-03-20T13:52:13.646Z,12.50
2023-03-20T13:55:15.136Z,12.40
2023-03-20T13:58:10.532Z,12.50
2023-03-20T14:00:49.190Z,12.30
2023-03-20T14:03:25.915Z,12.10
2023-03-20T14:05:54.699Z,11.90
2023-03-20T14:08:44.723Z,12.10
2023-03-20T14:11:32.652Z,12.10
2023-03-20T14:14:51.741Z,12.10
2023-03-20T14:17:26.122Z,12.00
2023-03-20T14:19:59.580Z,12.10
2023-03-20T14:22:33.859Z,12.10
2023-03-20T14:25:08.349Z,11.80
2023-03-20T14:27:54.785Z,11.80
2023-03-20T14:34:10.891Z,12.30
2023-03-20T14:36:58.070Z,12.00
2023-03-20T14:39:48.552Z,11.80
2023-03-20T14:42:31.313Z,12.00
2023-03-20T14:45:51.341Z,11.70
2023-03-20T14:48:43.803Z,11.70
2023-03-20T14:51:25.965Z,11.80
2023-03-20T14:54:01.028Z,11.80
2023-03-20T14:56:41.911Z,11.90
2023-03-20T14:59:13.630Z,12.10
2023-03-20T15:01:59.222Z,12.00
2023-03-20T15:04:40.098Z,12.00
2023-03-20T15:07:17.001Z,12.00
2023-03-20T15:09:48.023Z,12.10
2023-03-20T15:12:20.842Z,12.20
2023-03-20T15:15:33.330Z,12.30
2023-03-20T15:18:13.826Z,12.10
2023-03-20T15:20:56.331Z,11.70
2023-03-20T15:23:28.254Z,12.00
2023-03-20T15:26:03.485Z,11.90
2023-03-20T15:28:32.898Z,11.90
2023-03-20T15:31:02.697Z,11.80
2023-03-20T15:33:37.168Z,11.40
2023-03-20T15:36:11.744Z,11.40
2023-03-20T15:38:59.684Z,11.30
2023-03-20T15:41:34.123Z,11.20
2023-03-20T15:44:17.119Z,11.20
2023-03-20T15:46:57.512Z,11.20
2023-03-20T15:49:27.164Z,11.20
2023-03-20T15:52:01.983Z,11.10
2023-03-20T15:54:52.029Z,11.00
2023-03-20T15:57:44.005Z,10.90
2023-03-20T16:00:26.820Z,10.90
2023-03-20T16:03:00.553Z,10.90
2023-03-20T16:05:42.630Z,10.90
2023-03-20T16:09:04.907Z,10.90
2023-03-20T16:11:43.713Z,10.90
2023-03-20T16:14:27.687Z,11.10
2023-03-20T16:17:19.553Z,11.00
2023-03-20T16:19:52.714Z,11.00
2023-03-20T16:22:27.799Z,10.90
2023-03-20T16:25:08.850Z,10.80
2023-03-20T16:28:07.301Z,10.80
2023-03-20T16:30:40.445Z,10.80
2023-03-20T16:33:24.063Z,10.80
2023-03-20T16:36:01.400Z,10.80
2023-03-20T16:38:41.451Z,10.80
2023-03-20T16:41:18.525Z,10.90
2023-03-20T16:43:52.923Z,10.80
2023-03-20T16:46:24.319Z,10.80
2023-03-20T16:48:54.112Z,10.80
2023-03-20T16:51:26.285Z,10.80
2023-03-20T16:53:59.007Z,10.70
2023-03-20T16:56:30.486Z,10.70
2023-03-20T16:59:08.944Z,10.80
2023-03-20T17:01:41.619Z,10.70
2023-03-20T17:04:22.452Z,10.70
2023-03-20T17:06:58.356Z,10.60
2023-03-20T17:09:28.894Z,10.50
2023-03-20T17:12:07.756Z,10.40
2023-03-20T17:14:38.246Z,10.40
2023-03-20T17:17:13.873Z,10.40
2023-03-20T17:19:42.969Z,10.30
2023-03-20T17:22:16.020Z,10.20
2023-03-20T17:24:44.946Z,9.90
2023-03-20T17:27:13.950Z,9.90
2023-03-20T17:29:43.964Z,9.70
2023-03-20T17:32:14.065Z,9.60
2023-03-20T17:34:42.947Z,9.60
2023-03-20T17:37:38.093Z,9.50
2023-03-20T17:40:08.898Z,9.40
2023-03-20T17:42:44.618Z,9.30
2023-03-20T17:45:19.198Z,9.30
2023-03-20T17:47:51.807Z,9.30
2023-03-20T17:50:31.267Z,9.20
2023-03-20T17:53:02.374Z,9.20
2023-03-20T17:55:30.753Z,9.10
2023-03-20T17:58:02.714Z,9.00
2023-03-20T18:00:35.058Z,9.00
2023-03-20T18:03:05.181Z,8.90
2023-03-20T18:05:39.635Z,8.90
2023-03-20T18:08:14.522Z,8.80
2023-03-20T18:10:46.600Z,8.80
2023-03-20T18:13:19.234Z,8.70
2023-03-20T18:15:52.163Z,8.60
2023-03-20T18:21:18.952Z,8.50
2023-03-20T18:23:49.360Z,8.50
2023-03-20T18:26:21.638Z,8.40
2023-03-20T18:28:52.308Z,8.50
2023-03-20T18:31:26.862Z,8.50
2023-03-20T18:34:07.669Z,8.50
2023-03-20T18:36:48.002Z,8.50
2023-03-20T18:39:20.127Z,8.50
2023-03-20T18:41:59.495Z,8.50
2023-03-20T18:45:33.012Z,8.40
2023-03-20T18:48:31.821Z,8.40
2023-03-20T18:51:02.972Z,8.40
2023-03-20T18:53:35.193Z,8.50
2023-03-20T18:56:07.258Z,8.50
2023-03-20T18:58:36.338Z,8.50
2023-03-20T19:01:05.963Z,8.50
2023-03-20T19:03:59.447Z,8.50
2023-03-20T19:06:32.621Z,8.50
2023-03-20T19:09:07.933Z,8.50
2023-03-20T19:11:38.742Z,8.50
2023-03-20T19:14:08.753Z,8.40
2023-03-20T19:16:41.165Z,8.40
2023-03-20T19:19:20.738Z,8.40
2023-03-20T19:21:52.243Z,8.40
2023-03-20T19:24:24.788Z,8.40
2023-03-20T19:26:57.447Z,8.40
2023-03-20T19:29:32.538Z,8.40
2023-03-20T19:35:58.834Z,8.30
2023-03-20T19:38:33.437Z,8.30
2023-03-20T19:41:15.608Z,8.30
2023-03-20T19:43:52.517Z,8.20
2023-03-20T19:46:39.663Z,8.20
2023-03-20T19:49:30.501Z,8.20
2023-03-20T19:52:08.529Z,8.10
2023-03-20T19:55:01.904Z,8.10
2023-03-20T19:57:33.777Z,8.10
2023-03-20T20:00:54.368Z,8.00
2023-03-20T20:03:29.630Z,7.90
2023-03-20T20:06:22.317Z,7.90
2023-03-20T20:08:53.106Z,7.90
2023-03-20T20:11:23.249Z,7.80
2023-03-20T20:14:07.730Z,7.70
2023-03-20T20:16:43.764Z,7.70
2023-03-20T20:19:14.320Z,7.80
2023-03-20T20:24:52.837Z,7.70
2023-03-20T20:27:34.154Z,7.60
2023-03-20T20:30:06.717Z,7.60
2023-03-20T20:32:47.387Z,7.60
2023-03-20T20:36:01.917Z,7.70
2023-03-20T20:38:49.332Z,7.70
2023-03-20T20:41:20.242Z,7.70
2023-03-20T20:44:14.448Z,7.70
2023-03-20T20:46:38.164Z,7.70
2023-03-20T20:49:18.675Z,7.70
2023-03-20T20:52:41.494Z,7.70
2023-03-20T20:55:25.281Z,7.70
2023-03-20T20:58:02.274Z,7.70
2023-03-20T21:00:47.671Z,7.80
2023-03-20T21:03:17.383Z,7.70
2023-03-20T21:05:45.988Z,7.80
2023-03-20T21:08:16.481Z,7.80
2023-03-20T21:10:46.722Z,7.80
2023-03-20T21:13:16.473Z,7.80
2023-03-20T21:15:45.701Z,7.90
2023-03-20T21:18:14.583Z,7.90
2023-03-20T21:20:42.774Z,7.90
2023-03-20T21:23:23.236Z,7.90
2023-03-20T21:25:52.864Z,8.00
2023-03-20T21:28:24.208Z,7.90
2023-03-20T21:31:20.609Z,7.90
2023-03-20T21:33:42.785Z,7.90
2023-03-20T21:36:12.269Z,7.90
2023-03-20T21:41:30.509Z,8.00
2023-03-20T21:44:03.735Z,8.00
2023-03-20T21:47:09.706Z,7.90
2023-03-20T21:53:12.082Z,7.80
2023-03-20T21:58:50.987Z,7.70
2023-03-20T22:01:42.034Z,7.70
2023-03-20T22:04:19.125Z,7.70
2023-03-20T22:07:18.502Z,7.70
2023-03-20T22:10:03.567Z,7.60
2023-03-20T22:32:44.862Z,7.70
2023-03-20T22:46:44.374Z,7.70
2023-03-20T22:49:09.019Z,7.70
2023-03-20T22:51:52.079Z,7.80
2023-03-20T22:54:30.733Z,7.70
2023-03-20T22:56:59.011Z,7.60
2023-03-20T22:59:27.271Z,7.70
2023-03-20T23:01:56.097Z,7.70
2023-03-20T23:04:24.364Z,7.70
2023-03-20T23:06:54.355Z,7.80
2023-03-20T23:09:22.985Z,7.70
2023-03-20T23:11:51.201Z,7.80
2023-03-20T23:14:22.108Z,7.70
2023-03-20T23:16:51.051Z,7.70
2023-03-20T23:19:19.647Z,7.80
2023-03-20T23:21:48.033Z,7.80
2023-03-20T23:24:28.820Z,7.80
2023-03-20T23:26:59.299Z,7.80
2023-03-20T23:29:28.992Z,7.70
2023-03-20T23:31:57.357Z,7.80
2023-03-20T23:34:25.865Z,7.80
2023-03-20T23:36:54.473Z,7.80
2023-03-20T23:39:27.555Z,7.70
2023-03-20T23:42:27.642Z,7.70
2023-03-20T23:44:56.266Z,7.70
2023-03-20T23:47:30.106Z,7.70
2023-03-20T23:50:04.518Z,7.70
2023-03-20T23:52:35.160Z,7.70
2023-03-20T23:55:06.987Z,7.70
2023-03-20T23:57:35.679Z,7.70
